Time;durP1;ratioP1;P1;durP2;ratioP2;P2;SDS_P1;SDS_P2;PMS_P1;PMS_P2;Temp;Humidity;BMP_temperature;BMP_pressure;BME280_temperature;BME280_humidity;BME280_pressure;Samples;Min_cycle;Max_cycle;Signal;HPM_P1;HPM_P2
2021/07/05 00:01:54;;;;;;;739.43;674.07;;;;;;;-144.99;79.12;52244.28;5076429;28;20998;-61
2021/07/05 00:04:21;;;;;;;727.60;662.57;;;;;;;-144.99;79.33;52232.03;5069093;28;20624;-62
2021/07/05 00:06:47;;;;;;;734.67;669.50;;;;;;;-144.99;79.73;52252.44;5068711;28;20656;-62
2021/07/05 00:09:14;;;;;;;736.53;671.60;;;;;;;-144.99;80.10;52244.28;5068554;28;20794;-60
2021/07/05 00:11:40;;;;;;;738.20;672.77;;;;;;;-144.99;80.53;52248.34;5084591;28;20645;-61
2021/07/05 00:14:10;;;;;;;743.67;677.83;;;;;;;-144.99;81.68;52232.03;5074987;28;20640;-61
2021/07/05 00:16:37;;;;;;;727.17;661.97;;;;;;;-144.99;82.21;52244.28;5089007;28;20632;-61
2021/07/05 00:19:04;;;;;;;722.03;657.17;;;;;;;-144.99;83.02;52264.66;5075276;28;20662;-63
2021/07/05 00:21:30;;;;;;;701.13;636.57;;;;;;;-144.99;83.29;52293.19;5091904;28;20630;-64
2021/07/05 00:23:57;;;;;;;694.13;629.87;;;;;;;-144.99;83.80;52258.53;5081433;28;20619;-64
2021/07/05 00:26:23;;;;;;;682.50;618.60;;;;;;;-144.99;84.50;52256.50;5072428;28;21085;-64
2021/07/05 00:28:50;;;;;;;675.40;611.63;;;;;;;-144.99;84.78;52270.78;5072368;28;20667;-64
2021/07/05 00:31:18;;;;;;;676.20;611.93;;;;;;;-144.99;85.51;52285.03;5082868;28;20631;-64
2021/07/05 00:33:45;;;;;;;671.90;607.53;;;;;;;-144.99;86.04;52227.97;5086336;28;20667;-64
2021/07/05 00:36:12;;;;;;;665.53;601.67;;;;;;;-144.99;86.09;52266.69;5087140;28;20658;-64
2021/07/05 00:38:39;;;;;;;657.70;594.03;;;;;;;-144.99;86.13;52258.53;5093146;28;20630;-64
2021/07/05 00:41:06;;;;;;;662.10;598.17;;;;;;;-144.99;86.07;52285.03;5080855;28;20611;-64
2021/07/05 00:43:32;;;;;;;645.50;582.20;;;;;;;-144.99;86.25;52244.28;5078025;28;20623;-64
2021/07/05 00:45:59;;;;;;;645.27;581.83;;;;;;;-144.99;86.09;52291.16;5092287;28;20633;-64
2021/07/05 00:48:27;;;;;;;642.73;579.40;;;;;;;-144.99;86.14;52276.88;5078744;28;20964;-64
2021/07/05 00:50:53;;;;;;;646.03;582.87;;;;;;;-144.99;86.28;52258.53;5092463;28;20626;-62
2021/07/05 00:53:20;;;;;;;648.87;585.43;;;;;;;-144.99;86.19;52236.13;5090230;28;21227;-62
2021/07/05 00:55:47;;;;;;;644.00;580.60;;;;;;;-144.99;86.04;52262.63;5076665;28;20611;-64
2021/07/05 00:58:14;;;;;;;636.43;573.43;;;;;;;-144.99;85.87;52293.19;5076987;28;20641;-62
2021/07/05 01:00:40;;;;;;;641.27;578.20;;;;;;;-144.99;86.20;52283.00;5071625;28;20665;-62
2021/07/05 01:03:07;;;;;;;635.60;572.90;;;;;;;-144.99;85.84;52211.66;5079699;28;20618;-61
2021/07/05 01:05:35;;;;;;;640.23;577.00;;;;;;;-144.99;86.24;52240.19;5071530;28;20725;-61
2021/07/05 01:08:02;;;;;;;635.07;571.93;;;;;;;-144.99;86.47;52256.50;5071489;28;20986;-61
2021/07/05 01:10:29;;;;;;;628.20;565.60;;;;;;;-144.99;86.75;52260.56;5070991;28;20654;-61
2021/07/05 01:12:56;;;;;;;630.20;567.57;;;;;;;-144.99;87.00;52260.56;5073539;28;20659;-61
2021/07/05 01:15:25;;;;;;;629.13;566.13;;;;;;;-144.99;87.20;52248.34;5080890;28;20640;-61
2021/07/05 01:17:52;;;;;;;627.70;564.90;;;;;;;-144.99;87.32;52268.72;5089958;28;21197;-61
2021/07/05 01:20:21;;;;;;;620.83;558.37;;;;;;;-144.99;87.53;52260.56;5088435;28;21008;-61
2021/07/05 01:22:50;;;;;;;614.27;552.13;;;;;;;-144.99;88.11;52268.72;5090276;28;20618;-60
2021/07/05 01:25:21;;;;;;;615.10;552.97;;;;;;;-144.99;88.12;52256.50;5084023;28;21021;-60
2021/07/05 01:27:48;;;;;;;613.33;551.33;;;;;;;-144.99;88.07;52264.66;5088681;28;20698;-61
2021/07/05 01:30:18;;;;;;;628.93;566.20;;;;;;;-144.99;88.65;52268.72;5082924;28;20658;-60
2021/07/05 01:32:45;;;;;;;616.97;554.60;;;;;;;-144.99;88.58;52244.28;5070401;28;20663;-61
2021/07/05 01:35:13;;;;;;;616.80;554.87;;;;;;;-144.99;88.90;52236.13;5078486;28;20633;-61
2021/07/05 01:37:39;;;;;;;603.60;541.97;;;;;;;-144.99;89.07;52268.72;5071219;28;20634;-61
2021/07/05 01:40:13;;;;;;;603.83;542.27;;;;;;;-144.99;89.21;52264.66;5072421;28;20681;-61
2021/07/05 01:42:40;;;;;;;611.57;549.87;;;;;;;-144.99;89.86;52260.56;5071057;28;21209;-61
2021/07/05 01:45:08;;;;;;;595.53;533.63;;;;;;;-144.99;90.13;52289.13;5084173;28;20637;-61
2021/07/05 01:47:36;;;;;;;607.77;545.83;;;;;;;-144.99;90.76;52248.34;5081099;28;20624;-61
2021/07/05 01:50:04;;;;;;;602.90;541.23;;;;;;;-144.99;91.36;52268.72;5074479;28;20663;-64
2021/07/05 01:52:30;;;;;;;599.70;537.97;;;;;;;-144.99;91.61;52234.09;5078416;28;20661;-63
2021/07/05 01:54:57;;;;;;;601.67;540.47;;;;;;;-144.99;91.80;52317.66;5085231;28;20635;-63
2021/07/05 01:57:27;;;;;;;591.80;530.53;;;;;;;-144.99;92.19;52268.72;5070900;28;20634;-62
2021/07/05 01:59:56;;;;;;;591.57;530.47;;;;;;;-144.99;92.30;52297.25;5083628;28;20648;-63
2021/07/05 02:02:23;;;;;;;592.07;531.00;;;;;;;-144.99;92.45;52264.66;5077253;28;20802;-63
2021/07/05 02:04:50;;;;;;;585.17;524.00;;;;;;;-144.99;92.94;52280.97;5090850;28;20621;-62
2021/07/05 02:07:17;;;;;;;612.27;550.37;;;;;;;-144.99;93.12;52248.34;5075896;28;20622;-62
2021/07/05 02:09:44;;;;;;;609.53;547.93;;;;;;;-144.99;93.49;52305.41;5070866;28;20655;-63
2021/07/05 02:12:11;;;;;;;596.13;534.90;;;;;;;-144.99;94.05;52260.56;5071016;28;20618;-61
2021/07/05 02:14:40;;;;;;;597.53;536.23;;;;;;;-144.99;94.38;52285.03;5071726;28;20630;-61
2021/07/05 02:17:08;;;;;;;611.40;549.63;;;;;;;-144.99;94.50;52289.13;5077775;28;20641;-62
2021/07/05 02:19:34;;;;;;;595.77;534.33;;;;;;;-144.99;95.25;52276.88;5071979;28;20643;-62
2021/07/05 02:22:01;;;;;;;611.80;550.13;;;;;;;-144.99;95.37;52246.31;5086976;28;20626;-61
2021/07/05 02:24:27;;;;;;;603.17;541.73;;;;;;;-144.99;95.55;52276.88;5079001;28;20619;-61
2021/07/05 02:26:54;;;;;;;611.10;549.17;;;;;;;-144.99;95.95;52252.44;5087194;28;20629;-61
2021/07/05 02:29:21;;;;;;;604.47;542.67;;;;;;;-144.99;95.87;52256.50;5082678;28;20681;-61
2021/07/05 02:31:48;;;;;;;599.67;538.00;;;;;;;-144.99;95.93;52264.66;5072307;28;20623;-62
2021/07/05 02:34:15;;;;;;;617.93;555.60;;;;;;;-144.99;96.10;52248.34;5070004;28;20662;-61
2021/07/05 02:36:42;;;;;;;599.43;537.77;;;;;;;-144.99;95.99;52268.72;5077075;28;20638;-61
2021/07/05 02:39:10;;;;;;;597.90;536.43;;;;;;;-144.99;95.89;52252.44;5073900;28;21206;-61
2021/07/05 02:41:37;;;;;;;615.60;553.63;;;;;;;-144.99;95.88;52285.03;5082090;28;20610;-61
2021/07/05 02:44:04;;;;;;;621.13;558.93;;;;;;;-144.99;95.76;52293.19;5072214;28;20623;-61
2021/07/05 02:46:31;;;;;;;614.67;552.50;;;;;;;-144.99;95.58;52256.50;5078710;28;20618;-61
2021/07/05 02:48:59;;;;;;;618.23;556.20;;;;;;;-144.99;95.83;52264.66;5071963;28;20654;-61
2021/07/05 02:51:25;;;;;;;614.57;552.43;;;;;;;-144.99;95.82;52264.66;5070171;28;20635;-63
2021/07/05 02:53:52;;;;;;;613.07;551.27;;;;;;;-144.99;95.93;52248.34;5089195;28;20658;-62
2021/07/05 02:56:19;;;;;;;614.37;552.40;;;;;;;-144.99;96.11;52276.88;5086429;28;20657;-60
2021/07/05 02:58:45;;;;;;;611.97;550.10;;;;;;;-144.99;96.26;52268.72;5074791;28;21011;-59
2021/07/05 03:01:12;;;;;;;620.63;558.50;;;;;;;-144.99;96.49;52260.56;5069892;28;20633;-59
2021/07/05 03:03:39;;;;;;;628.30;565.77;;;;;;;-144.99;97.29;52299.31;5069877;28;20623;-59
2021/07/05 03:06:07;;;;;;;622.67;560.27;;;;;;;-144.99;97.54;52295.22;5078994;28;20632;-60
2021/07/05 03:08:34;;;;;;;630.67;568.37;;;;;;;-144.99;97.42;52295.22;5069422;28;20643;-60
2021/07/05 03:11:00;;;;;;;613.93;550.87;;;;;;;-144.99;97.53;52252.44;5069692;28;20625;-60
2021/07/05 03:13:27;;;;;;;610.37;548.30;;;;;;;-144.99;97.79;52248.34;5069477;28;20674;-60
2021/07/05 03:15:55;;;;;;;617.50;554.90;;;;;;;-144.99;97.89;52260.56;5073190;28;21178;-60
2021/07/05 03:18:22;;;;;;;614.67;552.20;;;;;;;-144.99;98.14;52240.19;5079024;28;20733;-61
2021/07/05 03:20:51;;;;;;;616.93;554.30;;;;;;;-144.99;98.95;52240.19;5080331;28;20654;-60
2021/07/05 03:23:20;;;;;;;621.73;559.13;;;;;;;-144.99;99.19;52280.97;5083455;28;20619;-61
2021/07/05 03:25:47;;;;;;;612.97;550.43;;;;;;;-144.99;99.15;52293.19;5077797;28;21206;-63
2021/07/05 03:28:16;;;;;;;600.57;538.23;;;;;;;-144.99;99.67;52289.13;5082714;28;21104;-62
2021/07/05 03:30:44;;;;;;;599.97;538.27;;;;;;;-144.99;99.89;52289.13;5070676;28;20655;-62
2021/07/05 03:33:11;;;;;;;601.17;539.17;;;;;;;-144.99;100.00;52313.56;5069066;28;21049;-62
2021/07/05 03:35:38;;;;;;;608.17;545.47;;;;;;;-144.99;100.00;52285.03;5069540;28;20986;-61
2021/07/05 03:38:06;;;;;;;602.67;540.30;;;;;;;-144.99;99.83;52276.88;5084282;28;20615;-61
2021/07/05 03:40:36;;;;;;;597.10;535.07;;;;;;;-144.99;100.00;52280.97;5089053;28;20664;-61
2021/07/05 03:43:04;;;;;;;610.53;547.67;;;;;;;-144.99;100.00;52268.72;5089871;28;20648;-61
2021/07/05 03:45:33;;;;;;;609.77;547.27;;;;;;;-144.99;100.00;52262.63;5089977;28;20626;-60
2021/07/05 03:48:00;;;;;;;611.47;549.17;;;;;;;-144.99;100.00;52303.38;5085488;28;20633;-60
2021/07/05 03:50:28;;;;;;;602.90;540.93;;;;;;;-144.99;100.00;52276.88;5073279;28;20654;-60
2021/07/05 03:52:55;;;;;;;602.87;540.67;;;;;;;-144.99;100.00;52299.31;5080938;28;20623;-60
2021/07/05 03:55:24;;;;;;;597.77;535.63;;;;;;;-144.99;100.00;52297.25;5075400;28;20615;-60
2021/07/05 03:57:53;;;;;;;607.43;545.07;;;;;;;-144.99;100.00;52262.63;5076819;28;20630;-60
2021/07/05 04:00:21;;;;;;;618.63;556.17;;;;;;;-144.99;100.00;52293.19;5087586;28;20650;-60
2021/07/05 04:02:48;;;;;;;599.53;537.53;;;;;;;-144.99;100.00;52262.63;5075433;28;20633;-60
2021/07/05 04:05:16;;;;;;;611.63;549.33;;;;;;;-144.99;100.00;52252.44;5089151;28;20619;-60
2021/07/05 04:07:43;;;;;;;601.07;538.60;;;;;;;-144.99;100.00;52280.97;5088693;28;20641;-60
2021/07/05 04:10:11;;;;;;;608.17;545.73;;;;;;;-144.99;100.00;52256.50;5076328;28;20657;-62
2021/07/05 04:12:38;;;;;;;612.77;549.97;;;;;;;-144.99;100.00;52256.50;5068660;28;20657;-60
2021/07/05 04:15:08;;;;;;;601.53;539.40;;;;;;;-144.99;100.00;52268.72;5068819;28;21242;-60
2021/07/05 04:17:34;;;;;;;605.80;543.37;;;;;;;-144.99;100.00;52280.97;5073160;28;20638;-63
2021/07/05 04:20:01;;;;;;;630.47;567.63;;;;;;;-144.99;100.00;52260.56;5080934;28;20664;-66
2021/07/05 04:22:28;;;;;;;631.30;568.37;;;;;;;-144.99;100.00;52256.50;5084179;28;20619;-63
2021/07/05 04:24:54;;;;;;;611.87;549.50;;;;;;;-144.99;100.00;52215.75;5075663;28;20627;-62
2021/07/05 04:27:21;;;;;;;619.63;556.30;;;;;;;-144.99;100.00;52301.34;5089408;28;20629;-62
2021/07/05 04:29:47;;;;;;;625.83;562.87;;;;;;;-144.99;100.00;52301.34;5087482;28;20670;-63
2021/07/05 04:32:15;;;;;;;613.83;551.07;;;;;;;-144.99;100.00;52258.53;5076479;28;21012;-64
2021/07/05 04:34:42;;;;;;;614.50;552.20;;;;;;;-144.99;100.00;52248.34;5073336;28;21243;-64
2021/07/05 04:37:09;;;;;;;606.97;544.67;;;;;;;-144.99;100.00;52252.44;5068773;28;20646;-63
2021/07/05 04:39:36;;;;;;;613.07;550.20;;;;;;;-144.99;100.00;52305.41;5075583;28;20654;-63
2021/07/05 04:42:03;;;;;;;630.43;567.07;;;;;;;-144.99;100.00;52256.50;5079979;28;20622;-64
2021/07/05 04:44:30;;;;;;;625.70;562.33;;;;;;;-144.99;100.00;52276.88;5069707;28;20627;-66
2021/07/05 04:46:56;;;;;;;614.83;552.17;;;;;;;-144.99;100.00;52262.63;5069273;28;20626;-65
2021/07/05 04:49:26;;;;;;;621.00;557.97;;;;;;;-144.99;100.00;52276.88;5068229;28;20659;-64
2021/07/05 04:51:53;;;;;;;627.33;564.03;;;;;;;-144.99;100.00;52280.97;5075084;28;20638;-64
2021/07/05 04:54:19;;;;;;;631.10;567.70;;;;;;;-144.99;100.00;52266.69;5079969;28;21008;-64
2021/07/05 04:56:46;;;;;;;648.07;584.37;;;;;;;-144.99;100.00;52299.31;5072701;28;20977;-64
2021/07/05 04:59:14;;;;;;;624.87;561.93;;;;;;;-144.99;100.00;52240.19;5073114;28;20667;-64
2021/07/05 05:01:41;;;;;;;635.03;571.63;;;;;;;-144.99;100.00;52289.13;5068598;28;20635;-64
2021/07/05 05:04:07;;;;;;;660.60;596.63;;;;;;;-144.99;100.00;52246.31;5075827;28;20622;-64
2021/07/05 05:06:35;;;;;;;653.93;590.23;;;;;;;-144.99;100.00;52264.66;5072753;28;20627;-66
2021/07/05 05:09:04;;;;;;;655.23;591.43;;;;;;;-144.99;100.00;52272.81;4023323;28;10000819;-67
2021/07/05 05:11:31;;;;;;;650.67;586.87;;;;;;;-144.99;100.00;52301.34;5080279;28;20217;-67
2021/07/05 05:13:57;;;;;;;647.27;583.93;;;;;;;-144.99;100.00;52280.97;5069021;28;20674;-67
2021/07/05 05:16:24;;;;;;;664.27;599.93;;;;;;;-144.99;100.00;52260.56;5069127;28;20634;-67
2021/07/05 05:18:50;;;;;;;647.97;583.83;;;;;;;-144.99;100.00;52289.13;5080171;28;20653;-66
2021/07/05 05:21:18;;;;;;;666.33;602.30;;;;;;;-144.99;100.00;52246.31;5083065;28;20629;-66
2021/07/05 05:23:46;;;;;;;660.90;596.87;;;;;;;-144.99;100.00;52280.97;5083822;28;20618;-66
2021/07/05 05:26:12;;;;;;;646.40;582.87;;;;;;;-144.99;100.00;52240.19;5074762;28;20634;-66
2021/07/05 05:28:39;;;;;;;647.80;584.03;;;;;;;-144.99;100.00;52305.41;5087959;28;21201;-66
2021/07/05 05:31:06;;;;;;;656.27;591.93;;;;;;;-144.99;100.00;52272.81;5083663;28;20642;-66
2021/07/05 05:33:32;;;;;;;669.50;604.93;;;;;;;-144.99;100.00;52297.25;5068471;28;21140;-66
2021/07/05 05:35:59;;;;;;;670.63;606.57;;;;;;;-144.99;100.00;52280.97;5068217;28;20622;-66
2021/07/05 05:38:26;;;;;;;654.07;590.47;;;;;;;-144.99;100.00;52313.56;5068297;28;20631;-66
2021/07/05 05:40:54;;;;;;;666.33;602.60;;;;;;;-144.99;99.90;52270.78;5076998;28;20627;-66
2021/07/05 05:43:20;;;;;;;675.53;611.53;;;;;;;-144.99;99.72;52260.56;5068548;28;20641;-66
2021/07/05 05:45:47;;;;;;;682.10;618.23;;;;;;;-144.99;99.76;52236.13;5068361;28;20625;-66
2021/07/05 05:48:13;;;;;;;671.00;606.97;;;;;;;-144.99;99.67;52285.03;5068399;28;20634;-66
2021/07/05 05:50:40;;;;;;;659.27;595.50;;;;;;;-144.99;99.24;52301.34;5070606;28;20685;-66
2021/07/05 05:53:07;;;;;;;659.70;595.87;;;;;;;-144.99;99.52;52244.28;5081093;28;20652;-66
2021/07/05 05:55:34;;;;;;;651.67;588.07;;;;;;;-144.99;99.18;52285.03;5074441;28;20667;-65
2021/07/05 05:58:02;;;;;;;652.60;589.27;;;;;;;-144.99;99.60;52289.13;5072721;28;20630;-66
2021/07/05 06:00:28;;;;;;;638.07;575.20;;;;;;;-144.99;98.73;52244.28;5086704;28;20653;-67
2021/07/05 06:02:55;;;;;;;639.10;575.83;;;;;;;-144.99;98.41;52248.34;5075246;28;20625;-66
2021/07/05 06:05:22;;;;;;;634.83;571.73;;;;;;;-144.99;98.77;52256.50;5075143;28;20630;-67
2021/07/05 06:07:50;;;;;;;636.53;573.57;;;;;;;-144.99;99.13;52297.25;5087846;28;20672;-66
2021/07/05 06:10:18;;;;;;;628.83;566.60;;;;;;;-144.99;98.90;52303.38;5088074;28;20676;-67
2021/07/05 06:12:45;;;;;;;640.70;578.17;;;;;;;-144.99;98.99;52276.88;5080921;28;20722;-65
2021/07/05 06:15:14;;;;;;;638.30;575.73;;;;;;;-144.99;99.62;52240.19;5068097;28;20666;-66
2021/07/05 06:17:41;;;;;;;629.83;567.07;;;;;;;-144.99;99.25;52246.31;5071826;28;21211;-66
2021/07/05 06:20:09;;;;;;;639.63;576.53;;;;;;;-144.99;99.55;52272.81;5074270;28;20657;-66
2021/07/05 06:22:41;;;;;;;640.77;577.80;;;;;;;-144.99;99.49;52264.66;5082171;28;20671;-65
2021/07/05 06:25:10;;;;;;;641.40;578.33;;;;;;;-144.99;99.39;52278.91;5071901;28;20680;-66
2021/07/05 06:27:36;;;;;;;634.03;571.40;;;;;;;-144.99;99.67;52285.03;5074168;28;20626;-66
2021/07/05 06:30:04;;;;;;;650.83;588.03;;;;;;;-144.99;99.41;52297.25;5083270;28;20673;-66
2021/07/05 06:32:32;;;;;;;620.47;557.27;;;;;;;-144.99;98.99;52244.28;5067341;28;20649;-66
2021/07/05 06:34:58;;;;;;;644.10;580.57;;;;;;;-144.99;99.33;52219.81;5066890;28;20677;-66
2021/07/05 06:37:25;;;;;;;636.17;573.53;;;;;;;-144.99;98.64;52248.34;5067916;28;20626;-65
2021/07/05 06:39:51;;;;;;;640.50;577.77;;;;;;;-144.99;98.62;52258.53;5079263;28;20740;-66
2021/07/05 06:42:18;;;;;;;643.60;580.60;;;;;;;-144.99;98.30;52260.56;5076144;28;20630;-66
2021/07/05 06:44:44;;;;;;;630.90;568.50;;;;;;;-144.99;98.32;52280.97;5067181;28;20619;-66
2021/07/05 06:47:11;;;;;;;624.70;562.13;;;;;;;-144.99;97.76;52219.81;5067193;28;20661;-66
2021/07/05 06:49:39;;;;;;;614.77;552.60;;;;;;;-144.99;98.07;52227.97;5072755;28;20659;-66
2021/07/05 06:52:06;;;;;;;607.00;544.93;;;;;;;-144.99;97.90;52252.44;5071122;28;20987;-66
2021/07/05 06:54:33;;;;;;;609.20;546.83;;;;;;;-144.99;97.06;52209.63;5087806;28;20670;-66
2021/07/05 06:57:00;;;;;;;617.87;555.60;;;;;;;-144.99;97.18;52264.66;5070617;28;21112;-66
2021/07/05 06:59:26;;;;;;;608.77;546.80;;;;;;;-144.99;97.34;52236.13;5083237;28;20662;-68
2021/07/05 07:01:53;;;;;;;611.87;549.77;;;;;;;-144.99;95.98;52289.13;5068373;28;20626;-65
2021/07/05 07:04:20;;;;;;;610.77;548.60;;;;;;;-144.99;96.70;52270.78;5067291;28;20619;-66
2021/07/05 07:06:49;;;;;;;607.07;544.97;;;;;;;-144.99;96.70;52244.28;5066644;28;20638;-67
2021/07/05 07:09:16;;;;;;;602.10;540.13;;;;;;;-144.99;96.90;52291.16;5072921;28;20674;-67
2021/07/05 07:11:43;;;;;;;592.37;530.83;;;;;;;-144.99;96.28;52268.72;5087799;28;20653;-66
2021/07/05 07:14:10;;;;;;;601.43;539.57;;;;;;;-144.99;96.65;52252.44;5087209;28;20665;-66
2021/07/05 07:16:42;;;;;;;597.40;535.07;;;;;;;-144.99;96.47;52260.56;5086646;28;20630;-66
2021/07/05 07:19:16;;;;;;;608.83;546.63;;;;;;;-144.99;95.94;52285.03;5072493;28;20652;-65
2021/07/05 07:21:45;;;;;;;591.87;529.77;;;;;;;-144.99;95.63;52240.19;5086120;28;20633;-66
2021/07/05 07:24:13;;;;;;;600.27;537.73;;;;;;;-144.99;95.79;52264.66;5082408;28;20622;-67
2021/07/05 07:26:39;;;;;;;605.00;541.90;;;;;;;-144.99;94.94;52268.72;5067183;28;21135;-67
2021/07/05 07:29:06;;;;;;;596.57;534.47;;;;;;;-144.99;93.89;52276.88;5079640;28;20673;-67
2021/07/05 07:31:33;;;;;;;602.20;539.50;;;;;;;-144.99;94.51;52285.03;5079452;28;21016;-67
2021/07/05 07:33:59;;;;;;;601.37;539.33;;;;;;;-144.99;94.22;52268.72;5066352;28;20625;-67
2021/07/05 07:36:26;;;;;;;618.27;555.40;;;;;;;-144.99;93.99;52285.03;5066155;28;20630;-67
2021/07/05 07:38:57;;;;;;;607.57;544.63;;;;;;;-144.99;94.15;52280.97;5076228;28;21360;-67
2021/07/05 07:41:31;;;;;;;600.83;538.40;;;;;;;-144.99;94.04;52283.00;5086470;28;20649;-66
2021/07/05 07:43:58;;;;;;;629.37;566.43;;;;;;;-144.99;94.28;52260.56;5086926;28;20665;-67
2021/07/05 07:46:26;;;;;;;621.17;558.53;;;;;;;-144.99;94.62;52268.72;5086052;28;21011;-66
2021/07/05 07:48:53;;;;;;;631.83;569.03;;;;;;;-144.99;94.20;52223.88;5081560;28;21480;-66
2021/07/05 07:51:23;;;;;;;628.87;566.03;;;;;;;-144.99;93.98;52227.97;5065507;28;20623;-66
2021/07/05 07:53:49;;;;;;;620.17;557.47;;;;;;;-144.99;93.17;52240.19;5080032;28;20631;-66
2021/07/05 07:56:16;;;;;;;617.67;554.80;;;;;;;-144.99;93.10;52232.03;5071778;28;20698;-66
2021/07/05 07:58:44;;;;;;;641.43;577.77;;;;;;;-144.99;91.27;52197.41;5083515;28;20727;-66
2021/07/05 08:01:11;;;;;;;646.67;583.43;;;;;;;-144.99;90.39;52252.44;5079278;28;21180;-65
2021/07/05 08:03:37;;;;;;;654.93;591.47;;;;;;;-144.99;89.86;52211.66;5077594;28;20776;-67
2021/07/05 08:06:06;;;;;;;695.97;631.47;;;;;;;-144.99;88.39;52215.75;5085764;28;20618;-65
2021/07/05 08:08:32;;;;;;;680.00;615.80;;;;;;;-144.99;88.67;52244.28;5086394;28;20725;-65
2021/07/05 08:10:59;;;;;;;682.63;618.00;;;;;;;-144.99;88.04;52244.28;5078356;28;20642;-65
2021/07/05 08:13:26;;;;;;;636.90;573.97;;;;;;;-144.99;85.72;52230.00;5066388;28;20662;-66
2021/07/05 08:15:54;;;;;;;646.57;583.67;;;;;;;-144.99;85.58;52193.31;5078625;28;20663;-66
2021/07/05 08:18:21;;;;;;;669.03;605.40;;;;;;;-144.99;85.16;52223.88;5069459;28;21247;-65
2021/07/05 08:20:48;;;;;;;670.97;607.40;;;;;;;-144.99;84.79;52219.81;5077010;28;20666;-66
2021/07/05 08:23:14;;;;;;;675.27;611.63;;;;;;;-144.99;84.21;52248.34;5080150;28;20637;-66
2021/07/05 08:25:41;;;;;;;676.80;613.57;;;;;;;-144.99;83.93;52232.03;5065918;28;20971;-67
2021/07/05 08:28:08;;;;;;;670.90;607.53;;;;;;;-144.99;83.35;52227.97;5065840;28;20653;-67
2021/07/05 08:30:35;;;;;;;674.73;611.40;;;;;;;-144.99;83.80;52244.28;5071187;28;20663;-66
2021/07/05 08:33:03;;;;;;;686.53;623.07;;;;;;;-144.99;82.50;52252.44;5079761;28;20638;-66
2021/07/05 08:35:30;;;;;;;659.77;596.97;;;;;;;-144.99;81.28;52232.03;5065684;28;20674;-67
2021/07/05 08:37:57;;;;;;;662.60;599.83;;;;;;;-144.99;81.19;52246.31;5065495;28;20635;-66
2021/07/05 08:40:24;;;;;;;661.57;598.87;;;;;;;-144.99;81.22;52191.28;5078530;28;20746;-66
2021/07/05 08:42:50;;;;;;;661.37;598.80;;;;;;;-144.99;80.34;52266.69;5075330;28;20627;-66
2021/07/05 08:45:17;;;;;;;653.87;591.47;;;;;;;-144.99;81.67;52209.63;5085195;28;20637;-66
2021/07/05 08:47:48;;;;;;;669.07;606.20;;;;;;;-144.99;82.53;52201.47;5090375;28;21154;-65
2021/07/05 08:50:17;;;;;;;669.17;606.40;;;;;;;-144.99;82.51;52240.19;5089678;28;21262;-65
2021/07/05 08:52:45;;;;;;;662.83;600.50;;;;;;;-144.99;82.80;52252.44;5089085;28;20985;-65
2021/07/05 08:55:12;;;;;;;656.50;594.17;;;;;;;-144.99;81.65;52236.13;5085038;28;21046;-66
2021/07/05 08:57:41;;;;;;;654.13;592.40;;;;;;;-144.99;80.69;52223.88;5071284;28;20636;-67
2021/07/05 09:00:10;;;;;;;651.80;590.10;;;;;;;-144.99;78.04;52236.13;5072170;28;20988;-67
2021/07/05 09:02:37;;;;;;;629.67;568.77;;;;;;;-144.99;77.99;52232.03;5072997;28;21188;-67
2021/07/05 09:05:04;;;;;;;641.77;581.03;;;;;;;-144.99;78.20;52187.19;5083896;28;20644;-67
2021/07/05 09:07:32;;;;;;;643.70;582.37;;;;;;;-144.99;77.46;52215.75;5081591;28;20619;-67
2021/07/05 09:10:01;;;;;;;643.40;582.20;;;;;;;-144.99;76.32;52240.19;5089884;28;20678;-66
2021/07/05 09:12:28;;;;;;;652.60;591.37;;;;;;;-144.99;75.54;52211.66;5091825;28;20636;-65
2021/07/05 09:15:09;;;;;;;669.93;608.30;;;;;;;-144.99;74.60;52203.50;5084281;28;20664;-67
2021/07/05 09:17:38;;;;;;;659.70;598.27;;;;;;;-144.99;74.90;52236.13;5078304;28;21172;-67
2021/07/05 09:20:19;;;;;;;663.20;601.73;;;;;;;-144.99;75.72;52203.50;5074397;28;20648;-66
2021/07/05 09:23:12;;;;;;;664.83;603.50;;;;;;;-144.99;74.53;52236.13;5082266;28;20640;-66
2021/07/05 09:25:41;;;;;;;658.30;597.40;;;;;;;-144.99;74.90;52183.13;5087217;28;20901;-66
2021/07/05 09:28:08;;;;;;;659.20;597.87;;;;;;;-144.99;74.76;52236.13;5075618;28;20632;-66
2021/07/05 09:30:37;;;;;;;657.97;596.93;;;;;;;-144.99;74.83;52195.34;5076628;28;21345;-66
2021/07/05 09:33:19;;;;;;;661.10;600.10;;;;;;;-144.99;74.93;52244.28;5081956;28;21224;-65
2021/07/05 09:35:46;;;;;;;676.83;614.70;;;;;;;-144.99;74.18;52203.50;5082205;28;21223;-66
2021/07/05 09:38:28;;;;;;;683.03;620.77;;;;;;;-144.99;74.86;52211.66;5077553;28;20629;-66
2021/07/05 09:40:55;;;;;;;671.37;609.70;;;;;;;-144.99;74.43;52207.59;5070624;28;20729;-68
2021/07/05 09:43:28;;;;;;;676.83;615.20;;;;;;;-144.99;71.08;52187.19;5068458;28;21221;-66
2021/07/05 09:45:55;;;;;;;708.23;645.03;;;;;;;-144.99;70.15;52177.00;5081593;28;21009;-65
2021/07/05 09:48:23;;;;;;;737.60;673.97;;;;;;;-144.99;68.85;52162.75;5081566;28;20632;-66
2021/07/05 09:50:57;;;;;;;731.07;667.33;;;;;;;-144.99;69.55;52191.28;5081051;28;20630;-67
2021/07/05 09:53:39;;;;;;;733.20;669.40;;;;;;;-144.99;70.49;52209.63;5081448;28;20634;-66
2021/07/05 09:56:23;;;;;;;733.10;669.17;;;;;;;-144.99;69.20;52199.44;5083818;28;20652;-65
2021/07/05 09:58:51;;;;;;;722.87;659.33;;;;;;;-144.99;69.67;52154.59;5079913;28;21272;-64
2021/07/05 10:01:36;;;;;;;720.17;656.97;;;;;;;-144.99;70.19;52197.41;5081182;28;20622;-65
2021/07/05 10:04:05;;;;;;;717.53;654.50;;;;;;;-144.99;69.60;52236.13;5081468;28;20652;-66
2021/07/05 10:06:42;;;;;;;713.73;651.20;;;;;;;-144.99;69.42;52181.09;5088052;28;20622;-67
2021/07/05 10:09:11;;;;;;;739.93;676.67;;;;;;;-144.99;68.45;52223.88;5087284;28;20680;-66
2021/07/05 10:11:39;;;;;;;754.40;690.63;;;;;;;-144.99;68.48;52211.66;5078021;28;20653;-65
2021/07/05 10:14:14;;;;;;;733.83;670.33;;;;;;;-144.99;68.60;52183.13;5085769;28;20618;-66
2021/07/05 10:16:42;;;;;;;738.73;675.60;;;;;;;-144.99;68.93;52187.19;5087738;28;21252;-66
2021/07/05 10:19:09;;;;;;;760.60;697.07;;;;;;;-144.99;68.05;52179.06;5067835;28;20843;-66
2021/07/05 10:21:37;;;;;;;779.97;715.90;;;;;;;-144.99;68.17;52195.34;5086198;28;20643;-66
2021/07/05 10:24:06;;;;;;;776.70;712.30;;;;;;;-144.99;68.61;52234.09;5077156;28;20633;-66
2021/07/05 10:26:35;;;;;;;765.80;702.23;;;;;;;-144.99;69.31;52203.50;5067526;28;20637;-66
2021/07/05 10:29:02;;;;;;;757.57;693.90;;;;;;;-144.99;68.40;52211.66;5067922;28;20657;-66
2021/07/05 10:31:28;;;;;;;753.13;689.67;;;;;;;-144.99;68.03;52158.66;5084127;28;20628;-66
2021/07/05 10:33:59;;;;;;;760.97;697.77;;;;;;;-144.99;67.13;52162.75;5076039;28;20636;-66
2021/07/05 10:36:28;;;;;;;788.80;724.80;;;;;;;-144.99;65.19;52126.06;5087328;28;20716;-66
2021/07/05 10:38:57;;;;;;;804.80;739.90;;;;;;;-144.99;64.34;52189.25;5087056;28;20660;-66
2021/07/05 10:41:39;;;;;;;818.37;753.03;;;;;;;-144.99;62.99;52162.75;5078677;28;20631;-66
2021/07/05 10:44:09;;;;;;;835.17;769.87;;;;;;;-144.99;63.04;52207.59;5068801;28;20636;-65
2021/07/05 10:46:44;;;;;;;851.43;785.93;;;;;;;-144.99;63.30;52199.44;5066929;28;20658;-67
2021/07/05 10:49:47;;;;;;;859.80;793.87;;;;;;;-144.99;64.09;52168.84;5066649;28;20647;-66